Time;durP1;ratioP1;P1;durP2;ratioP2;P2;SDS_P1;SDS_P2;PMS_P1;PMS_P2;Temp;Humidity;BMP_temperature;BMP_pressure;BME280_temperature;BME280_humidity;BME280_pressure;Samples;Min_cycle;Max_cycle;Signal;HPM_P1;HPM_P2
2023/08/13 00:01:36;;;;;;;3.00;1.40;;;;;;;-145.18;100.00;46674.06;5029958;28;20037;-60
2023/08/13 00:04:01;;;;;;;6.13;1.33;;;;;;;-145.18;100.00;46662.34;5030204;28;20420;-61
2023/08/13 00:06:27;;;;;;;4.43;1.70;;;;;;;-145.18;100.00;46662.34;5029457;28;20043;-61
2023/08/13 00:08:52;;;;;;;8.17;1.63;;;;;;;-145.18;100.00;46664.31;5031686;28;20033;-60
2023/08/13 00:11:18;;;;;;;8.13;2.03;;;;;;;-145.18;100.00;46666.25;5026108;28;20104;-61
2023/08/13 00:13:43;;;;;;;7.43;2.07;;;;;;;-145.18;100.00;46666.25;5024239;28;20088;-61
2023/08/13 00:16:09;;;;;;;8.93;1.97;;;;;;;-145.18;100.00;46660.41;5032732;28;20105;-61
2023/08/13 00:18:35;;;;;;;7.63;2.10;;;;;;;-145.18;100.00;46668.22;5030528;28;20452;-60
2023/08/13 00:21:00;;;;;;;29.53;2.47;;;;;;;-145.18;100.00;46662.34;5022533;28;20100;-61
2023/08/13 00:23:26;;;;;;;6.93;2.23;;;;;;;-145.18;100.00;46666.25;5018589;28;20065;-60
2023/08/13 00:25:51;;;;;;;8.43;2.10;;;;;;;-145.18;100.00;46654.53;5027746;28;20499;-60
2023/08/13 00:28:17;;;;;;;6.83;2.33;;;;;;;-145.18;100.00;46658.44;5031381;28;20044;-61
2023/08/13 00:30:42;;;;;;;7.67;2.07;;;;;;;-145.18;100.00;46662.34;5033274;28;20026;-60
2023/08/13 00:33:08;;;;;;;5.30;1.80;;;;;;;-145.18;100.00;46664.31;5030148;28;20496;-61
2023/08/13 00:35:33;;;;;;;6.83;2.17;;;;;;;-145.18;100.00;46654.53;5033669;28;20037;-60
2023/08/13 00:37:58;;;;;;;8.67;2.30;;;;;;;-145.18;100.00;46662.34;5021599;28;20056;-60
2023/08/13 00:40:24;;;;;;;6.33;2.50;;;;;;;-145.18;100.00;46662.34;5022003;28;20568;-60
2023/08/13 00:42:49;;;;;;;9.77;2.17;;;;;;;-145.18;100.00;46656.50;5032464;28;20030;-60
2023/08/13 00:45:15;;;;;;;7.30;1.83;;;;;;;-145.18;100.00;46662.34;5020900;28;20049;-60
2023/08/13 00:47:41;;;;;;;6.33;1.73;;;;;;;-145.18;100.00;46662.34;5025683;28;20040;-60
2023/08/13 00:50:07;;;;;;;7.27;2.10;;;;;;;-145.18;100.00;46660.41;5024196;28;20018;-61
2023/08/13 00:52:32;;;;;;;7.47;2.03;;;;;;;-145.18;100.00;46660.41;5030641;28;20047;-60
2023/08/13 00:54:58;;;;;;;6.80;2.20;;;;;;;-145.18;100.00;46658.44;5020031;28;20120;-61
2023/08/13 00:57:24;;;;;;;11.93;2.30;;;;;;;-145.18;100.00;46660.41;5023716;28;20026;-60
2023/08/13 00:59:50;;;;;;;8.40;2.53;;;;;;;-145.18;100.00;46660.41;5025254;28;20074;-60
2023/08/13 01:02:16;;;;;;;16.73;2.70;;;;;;;-145.18;100.00;46662.34;5025681;28;20570;-60
2023/08/13 01:04:42;;;;;;;9.43;2.63;;;;;;;-145.18;100.00;46660.41;5017451;28;20038;-60
2023/08/13 01:07:25;;;;;;;9.57;1.80;;;;;;;-145.18;100.00;46656.50;5032049;28;20033;-61
2023/08/13 01:10:16;;;;;;;8.53;2.50;;;;;;;-145.18;100.00;46654.53;5025377;28;20092;-60
2023/08/13 01:12:52;;;;;;;9.40;2.87;;;;;;;-145.18;100.00;46656.50;5028139;28;20042;-60
2023/08/13 01:15:31;;;;;;;12.43;2.50;;;;;;;-145.18;100.00;46654.53;5018799;28;20032;-60
2023/08/13 01:17:59;;;;;;;8.77;2.63;;;;;;;-145.18;100.00;46652.59;5021777;28;20026;-60
2023/08/13 01:20:29;;;;;;;6.30;2.37;;;;;;;-145.18;100.00;46652.59;5029181;28;20137;-60
2023/08/13 01:22:54;;;;;;;10.03;2.10;;;;;;;-145.18;100.00;46650.63;5023954;28;20079;-61
2023/08/13 01:25:23;;;;;;;11.60;2.47;;;;;;;-145.18;100.00;46650.63;5023313;28;20053;-60
2023/08/13 01:28:10;;;;;;;10.30;2.33;;;;;;;-145.18;100.00;46648.69;5022069;28;20540;-61
2023/08/13 01:30:41;;;;;;;9.53;2.20;;;;;;;-145.18;100.00;46648.69;5025820;28;20132;-60
2023/08/13 01:33:08;;;;;;;8.43;2.07;;;;;;;-145.18;100.00;46652.59;5018643;28;20035;-60
2023/08/13 01:35:35;;;;;;;5.73;2.27;;;;;;;-145.18;100.00;46656.50;5018174;28;20033;-60
2023/08/13 01:38:02;;;;;;;11.23;2.17;;;;;;;-145.18;100.00;46652.59;5030280;28;20137;-60
2023/08/13 01:40:28;;;;;;;18.20;2.23;;;;;;;-145.18;100.00;46648.69;5020486;28;20062;-60
2023/08/13 01:42:54;;;;;;;10.83;1.90;;;;;;;-145.18;100.00;46652.59;5031830;28;20026;-60
2023/08/13 01:45:19;;;;;;;11.27;2.40;;;;;;;-145.18;100.00;46646.72;5025010;28;20037;-60
2023/08/13 01:47:46;;;;;;;7.67;2.40;;;;;;;-145.18;100.00;46646.72;5022031;28;20033;-60
2023/08/13 01:50:12;;;;;;;5.63;2.10;;;;;;;-145.18;100.00;46642.81;5023603;28;20033;-60
2023/08/13 01:52:37;;;;;;;6.20;2.10;;;;;;;-145.18;100.00;46648.69;5024210;28;20029;-61
2023/08/13 01:55:03;;;;;;;11.30;2.30;;;;;;;-145.18;100.00;46642.81;5020695;28;20026;-60
2023/08/13 01:57:29;;;;;;;8.80;2.20;;;;;;;-145.18;100.00;46642.81;5024673;28;20029;-60
2023/08/13 01:59:54;;;;;;;11.43;2.53;;;;;;;-145.18;100.00;46642.81;5019764;28;20036;-60
2023/08/13 02:02:20;;;;;;;16.77;2.10;;;;;;;-145.18;100.00;46642.81;5022253;28;20086;-60
2023/08/13 02:04:45;;;;;;;15.87;2.67;;;;;;;-145.18;100.00;46642.81;5017561;28;20030;-60
2023/08/13 02:07:10;;;;;;;7.00;2.27;;;;;;;-145.18;100.00;46646.72;5021167;28;20159;-60
2023/08/13 02:09:36;;;;;;;8.57;2.00;;;;;;;-145.18;100.00;46644.78;5032095;28;20029;-61
2023/08/13 02:12:01;;;;;;;13.10;2.53;;;;;;;-145.18;100.00;46640.88;5023622;28;20145;-60
2023/08/13 02:14:27;;;;;;;10.17;2.30;;;;;;;-145.18;100.00;46644.78;5028180;28;20051;-60
2023/08/13 02:16:53;;;;;;;8.40;2.27;;;;;;;-145.18;100.00;46644.78;5026193;28;20568;-60
2023/08/13 02:19:18;;;;;;;9.23;2.33;;;;;;;-145.18;100.00;46642.81;5021627;28;20034;-61
2023/08/13 02:21:44;;;;;;;8.03;2.10;;;;;;;-145.18;100.00;46640.88;5025480;28;20029;-60
2023/08/13 02:24:09;;;;;;;7.13;1.80;;;;;;;-145.18;100.00;46638.91;5030980;28;20033;-60
2023/08/13 02:26:34;;;;;;;7.90;2.60;;;;;;;-145.18;100.00;46638.91;5031724;28;20034;-60
2023/08/13 02:29:00;;;;;;;12.10;2.27;;;;;;;-145.18;100.00;46640.88;5029627;28;20394;-60
2023/08/13 02:31:25;;;;;;;8.53;2.07;;;;;;;-145.18;100.00;46644.78;5031831;28;20112;-60
2023/08/13 02:33:50;;;;;;;8.57;2.53;;;;;;;-145.18;100.00;46640.88;5019295;28;20038;-61
2023/08/13 02:36:16;;;;;;;8.93;2.80;;;;;;;-145.18;100.00;46644.78;5023800;28;20116;-61
2023/08/13 02:38:41;;;;;;;12.27;2.27;;;;;;;-145.18;100.00;46640.88;5017505;28;20038;-60
2023/08/13 02:41:07;;;;;;;12.07;2.13;;;;;;;-145.18;100.00;46642.81;5012428;28;20180;-60
2023/08/13 02:43:49;;;;;;;9.50;2.13;;;;;;;-145.18;100.00;46642.81;5010950;28;20036;-62
2023/08/13 02:46:15;;;;;;;13.00;2.30;;;;;;;-145.18;100.00;46640.88;5022380;28;20026;-60
2023/08/13 02:48:40;;;;;;;14.23;2.80;;;;;;;-145.18;100.00;46640.88;5017408;28;20644;-60
2023/08/13 02:51:05;;;;;;;12.53;1.90;;;;;;;-145.18;100.00;46644.78;5031850;28;20036;-60
2023/08/13 02:53:31;;;;;;;9.33;2.07;;;;;;;-145.18;100.00;46644.78;5015505;28;20030;-60
2023/08/13 02:55:56;;;;;;;7.60;2.47;;;;;;;-145.18;100.00;46640.88;5020514;28;20034;-60
2023/08/13 02:58:22;;;;;;;9.33;2.43;;;;;;;-145.18;100.00;46640.88;5023936;28;20033;-61
2023/08/13 03:00:47;;;;;;;8.03;2.60;;;;;;;-145.18;100.00;46636.94;5014951;28;20025;-61
2023/08/13 03:03:12;;;;;;;9.67;1.83;;;;;;;-145.18;100.00;46638.91;5030490;28;20152;-61
2023/08/13 03:05:38;;;;;;;8.07;2.27;;;;;;;-145.18;100.00;46636.94;5022031;28;20409;-60
2023/08/13 03:08:03;;;;;;;7.73;2.10;;;;;;;-145.18;100.00;46640.88;5013441;28;20033;-61
2023/08/13 03:10:29;;;;;;;6.83;2.53;;;;;;;-145.18;100.00;46676.03;5011646;28;20486;-60
2023/08/13 03:12:54;;;;;;;5.70;2.10;;;;;;;-145.18;100.00;46642.81;5026385;28;20029;-60
2023/08/13 03:15:20;;;;;;;7.83;1.90;;;;;;;-145.18;100.00;46640.88;5030226;28;20541;-60
2023/08/13 03:17:45;;;;;;;8.97;2.20;;;;;;;-145.18;100.00;46640.88;5029535;28;20037;-60
2023/08/13 03:20:11;;;;;;;7.97;2.20;;;;;;;-145.18;100.00;46660.41;5029318;28;20485;-60
2023/08/13 03:22:37;;;;;;;5.57;2.43;;;;;;;-145.18;100.00;46636.94;5024426;28;20040;-60
2023/08/13 03:25:03;;;;;;;12.87;2.13;;;;;;;-145.18;100.00;46636.94;5015954;28;20034;-60
2023/08/13 03:27:28;;;;;;;10.47;2.03;;;;;;;-145.18;100.00;46638.91;5026789;28;20504;-60
2023/08/13 03:29:54;;;;;;;8.97;2.00;;;;;;;-145.18;100.00;46636.94;5026134;28;20034;-60
2023/08/13 03:32:20;;;;;;;6.57;2.00;;;;;;;-145.18;100.00;46636.94;5029795;28;20037;-60
2023/08/13 03:34:45;;;;;;;9.77;2.10;;;;;;;-145.18;100.00;46636.94;5027420;28;20394;-60
2023/08/13 03:37:11;;;;;;;10.80;2.97;;;;;;;-145.18;100.00;46638.91;5029237;28;20151;-60
2023/08/13 03:39:36;;;;;;;9.80;2.10;;;;;;;-145.18;100.00;46636.94;5017875;28;20438;-60
2023/08/13 03:42:01;;;;;;;6.50;2.07;;;;;;;-145.18;100.00;46635.00;5016685;28;20038;-60
2023/08/13 03:44:27;;;;;;;10.60;2.43;;;;;;;-145.18;100.00;46635.00;5016902;28;20034;-60
2023/08/13 03:46:52;;;;;;;9.60;1.97;;;;;;;-145.18;100.00;46635.00;5034598;28;20397;-61
2023/08/13 03:49:18;;;;;;;9.53;2.30;;;;;;;-145.18;100.00;46660.41;5022705;28;20030;-60
2023/08/13 03:51:43;;;;;;;10.93;2.20;;;;;;;-145.18;100.00;46636.94;5021690;28;20038;-60
2023/08/13 03:54:08;;;;;;;7.63;2.97;;;;;;;-145.18;100.00;46660.41;5020593;28;20064;-60
2023/08/13 03:56:34;;;;;;;7.37;1.97;;;;;;;-145.18;100.00;46660.41;5016227;28;20160;-61
2023/08/13 03:58:59;;;;;;;7.07;2.30;;;;;;;-145.18;100.00;46660.41;5017342;28;20066;-60
2023/08/13 04:01:25;;;;;;;11.23;2.20;;;;;;;-145.18;100.00;46660.41;5026280;28;20045;-60
2023/08/13 04:03:50;;;;;;;12.57;2.53;;;;;;;-145.18;100.00;46660.41;5022246;28;20044;-60
2023/08/13 04:06:15;;;;;;;10.07;2.50;;;;;;;-145.18;100.00;46660.41;5018028;28;20046;-61
2023/08/13 04:08:41;;;;;;;6.83;2.40;;;;;;;-145.18;100.00;46633.06;5030640;28;20441;-60
2023/08/13 04:11:06;;;;;;;10.70;3.07;;;;;;;-145.18;100.00;46633.06;5024480;28;20030;-60
2023/08/13 04:13:31;;;;;;;8.87;2.60;;;;;;;-145.18;100.00;46633.06;5031456;28;20046;-61
2023/08/13 04:15:57;;;;;;;7.20;2.43;;;;;;;-145.18;100.00;46633.06;5017249;28;20034;-61
2023/08/13 04:18:22;;;;;;;11.57;2.83;;;;;;;-145.18;100.00;46660.41;5021365;28;20033;-61
2023/08/13 04:20:48;;;;;;;7.47;2.67;;;;;;;-145.18;100.00;46660.41;5018550;28;20078;-60
2023/08/13 04:23:13;;;;;;;10.87;2.90;;;;;;;-145.18;100.00;46660.41;5024335;28;20044;-61
2023/08/13 04:25:39;;;;;;;8.40;2.60;;;;;;;-145.18;100.00;46636.94;5026521;28;20035;-60
2023/08/13 04:28:05;;;;;;;9.53;2.90;;;;;;;-145.18;100.00;46638.91;5032738;28;20047;-61
2023/08/13 04:30:31;;;;;;;16.40;3.37;;;;;;;-145.18;100.00;46660.41;5019166;28;20034;-60
2023/08/13 04:32:57;;;;;;;8.30;3.43;;;;;;;-145.18;100.00;46635.00;5025432;28;20025;-61
2023/08/13 04:35:23;;;;;;;7.73;3.10;;;;;;;-145.18;100.00;46660.41;5021256;28;20032;-61
2023/08/13 04:37:52;;;;;;;6.60;2.97;;;;;;;-145.18;100.00;46660.41;5027817;28;20037;-61
2023/08/13 04:40:17;;;;;;;9.27;3.27;;;;;;;-145.18;100.00;46633.06;5016509;28;20037;-61
2023/08/13 04:42:43;;;;;;;6.87;2.70;;;;;;;-145.18;100.00;46633.06;5028566;28;20496;-61
2023/08/13 04:45:09;;;;;;;10.70;3.30;;;;;;;-145.18;100.00;46636.94;5031541;28;20392;-61
2023/08/13 04:47:35;;;;;;;8.40;2.70;;;;;;;-145.18;100.00;46636.94;5033775;28;20553;-60
2023/08/13 04:50:00;;;;;;;11.73;2.70;;;;;;;-145.18;100.00;46633.06;5028282;28;20121;-61
2023/08/13 04:52:25;;;;;;;7.77;2.50;;;;;;;-145.18;100.00;46633.06;5022684;28;20085;-60
2023/08/13 04:54:51;;;;;;;8.73;2.97;;;;;;;-145.18;100.00;46633.06;5028270;28;20105;-61
2023/08/13 04:57:16;;;;;;;14.77;2.83;;;;;;;-145.18;100.00;46636.94;5029724;28;20539;-61
2023/08/13 04:59:42;;;;;;;12.97;2.80;;;;;;;-145.18;100.00;46636.94;5018036;28;20450;-61
2023/08/13 05:02:07;;;;;;;7.87;2.77;;;;;;;-145.18;100.00;46635.00;5032773;28;20090;-61
2023/08/13 05:04:32;;;;;;;10.90;2.80;;;;;;;-145.18;100.00;46638.91;5035288;28;20128;-61
2023/08/13 05:06:58;;;;;;;10.00;3.00;;;;;;;-145.18;100.00;46633.06;4995657;28;20038;-60
2023/08/13 05:09:23;;;;;;;8.07;2.60;;;;;;;-145.18;100.00;46635.00;5032751;28;20036;-60
2023/08/13 05:11:48;;;;;;;7.07;2.43;;;;;;;-145.18;100.00;46638.91;5032851;28;20452;-60
2023/08/13 05:14:14;;;;;;;13.07;3.53;;;;;;;-145.18;100.00;46633.06;5021515;28;20038;-61
2023/08/13 05:16:39;;;;;;;7.23;2.43;;;;;;;-145.18;100.00;46633.06;5026632;28;20040;-61
2023/08/13 05:19:05;;;;;;;7.77;3.13;;;;;;;-145.18;100.00;46633.06;5026056;28;20083;-61
2023/08/13 05:21:30;;;;;;;9.07;2.93;;;;;;;-145.18;100.00;46635.00;5013963;28;20096;-61
2023/08/13 05:23:55;;;;;;;14.20;3.63;;;;;;;-145.18;100.00;46636.94;5020173;28;20398;-61
2023/08/13 05:26:21;;;;;;;6.80;2.60;;;;;;;-145.18;100.00;46635.00;5019938;28;20072;-61
2023/08/13 05:28:47;;;;;;;9.00;3.00;;;;;;;-145.18;100.00;46631.09;5028027;28;20022;-60
2023/08/13 05:31:13;;;;;;;6.73;2.40;;;;;;;-145.18;100.00;46635.00;5030316;28;20350;-60
2023/08/13 05:33:38;;;;;;;13.53;3.53;;;;;;;-145.18;100.00;46635.00;5028926;28;20033;-61
2023/08/13 05:36:04;;;;;;;9.20;3.17;;;;;;;-145.18;100.00;46635.00;5033202;28;20048;-61
2023/08/13 05:38:31;;;;;;;18.10;3.20;;;;;;;-145.18;100.00;46636.94;5031224;28;20037;-60
2023/08/13 05:40:56;;;;;;;11.10;2.80;;;;;;;-145.18;100.00;46636.94;5032110;28;20044;-61
2023/08/13 05:43:22;;;;;;;11.37;2.80;;;;;;;-145.18;100.00;46633.06;5031063;28;20060;-60
2023/08/13 05:45:47;;;;;;;16.07;3.20;;;;;;;-145.18;100.00;46633.06;5027922;28;20036;-60
2023/08/13 05:48:13;;;;;;;8.43;2.93;;;;;;;-145.18;100.00;46633.06;5030626;28;20045;-62
2023/08/13 05:50:38;;;;;;;10.13;2.70;;;;;;;-145.18;100.00;46629.13;5028261;28;20025;-60
2023/08/13 05:53:04;;;;;;;12.13;3.60;;;;;;;-145.18;100.00;46633.06;5027484;28;20452;-61
2023/08/13 05:55:29;;;;;;;12.97;3.87;;;;;;;-145.18;100.00;46633.06;5027876;28;20057;-60
2023/08/13 05:57:54;;;;;;;10.50;2.97;;;;;;;-145.18;100.00;46635.00;5031284;28;20161;-60
2023/08/13 06:00:20;;;;;;;11.43;3.03;;;;;;;-145.18;100.00;46635.00;5030135;28;20037;-60
2023/08/13 06:02:45;;;;;;;12.00;2.83;;;;;;;-145.18;100.00;46635.00;5027145;28;20057;-61
2023/08/13 06:05:11;;;;;;;10.43;2.63;;;;;;;-145.18;100.00;46629.13;5030215;28;20041;-61
2023/08/13 06:07:36;;;;;;;15.50;3.37;;;;;;;-145.18;100.00;46633.06;5028663;28;20392;-61
2023/08/13 06:10:03;;;;;;;12.73;3.00;;;;;;;-145.18;100.00;46633.06;5022960;28;20500;-60
2023/08/13 06:12:29;;;;;;;10.17;3.40;;;;;;;-145.18;100.00;46631.09;5022543;28;20385;-61
2023/08/13 06:14:55;;;;;;;10.93;3.07;;;;;;;-145.18;100.00;46633.06;5024258;28;20023;-61
2023/08/13 06:17:21;;;;;;;11.63;3.00;;;;;;;-145.18;100.00;46631.09;5026386;28;20096;-61
2023/08/13 06:19:46;;;;;;;8.80;2.70;;;;;;;-145.18;100.00;46629.13;5020097;28;20052;-61
2023/08/13 06:22:13;;;;;;;9.80;2.47;;;;;;;-145.18;100.00;46631.09;5022620;28;20103;-60
2023/08/13 06:24:39;;;;;;;11.37;2.77;;;;;;;-145.18;100.00;46631.09;5031648;28;20029;-60
2023/08/13 06:27:04;;;;;;;10.60;3.63;;;;;;;-145.18;100.00;46629.13;5029068;28;20041;-61
2023/08/13 06:29:30;;;;;;;9.90;3.47;;;;;;;-145.18;100.00;46636.94;5026038;28;20151;-61
2023/08/13 06:31:55;;;;;;;6.50;2.67;;;;;;;-145.18;100.00;46631.09;5025444;28;20117;-61
2023/08/13 06:34:21;;;;;;;12.07;2.80;;;;;;;-145.18;100.00;46633.06;5024701;28;20136;-60
2023/08/13 06:36:46;;;;;;;7.57;3.07;;;;;;;-145.18;100.00;46633.06;5023634;28;20045;-60
2023/08/13 06:39:11;;;;;;;10.17;3.03;;;;;;;-145.18;100.00;46636.94;5013180;28;20072;-61
2023/08/13 06:41:37;;;;;;;9.90;3.20;;;;;;;-145.18;100.00;46633.06;5026693;28;20057;-61
2023/08/13 06:44:03;;;;;;;9.53;2.90;;;;;;;-145.18;100.00;46636.94;5023794;28;20049;-61
2023/08/13 06:46:29;;;;;;;17.20;3.23;;;;;;;-145.18;100.00;46633.06;5012202;28;20590;-61
2023/08/13 06:48:54;;;;;;;7.83;3.27;;;;;;;-145.18;100.00;46633.06;5009212;28;20040;-61
2023/08/13 06:51:19;;;;;;;9.33;3.67;;;;;;;-145.18;100.00;46640.88;5022433;28;20033;-61
2023/08/13 06:53:45;;;;;;;12.67;3.23;;;;;;;-145.18;100.00;46636.94;5026724;28;20041;-61
2023/08/13 06:56:10;;;;;;;14.13;3.83;;;;;;;-145.18;100.00;46638.91;5025431;28;20037;-60
2023/08/13 06:58:35;;;;;;;10.20;3.00;;;;;;;-145.18;100.00;46635.00;5025422;28;20030;-61
2023/08/13 07:01:03;;;;;;;15.93;4.20;;;;;;;-145.18;100.00;46642.81;5028722;28;20386;-61
2023/08/13 07:03:28;;;;;;;11.97;3.00;;;;;;;-145.18;100.00;46636.94;5032918;28;20030;-61
2023/08/13 07:05:54;;;;;;;7.20;3.00;;;;;;;-145.18;100.00;46636.94;5031285;28;20081;-61
2023/08/13 07:08:21;;;;;;;8.73;2.97;;;;;;;-145.18;100.00;46644.78;5033697;28;20043;-61
2023/08/13 07:10:46;;;;;;;12.47;5.47;;;;;;;-145.18;100.00;46636.94;5026694;28;20528;-61
2023/08/13 07:13:12;;;;;;;9.40;2.93;;;;;;;-145.18;100.00;46640.88;5034847;28;20041;-61
2023/08/13 07:15:37;;;;;;;10.07;2.80;;;;;;;-145.18;100.00;46636.94;5020760;28;20477;-61
2023/08/13 07:18:03;;;;;;;12.40;3.40;;;;;;;-145.18;100.00;46640.88;5033828;28;20037;-61
2023/08/13 07:20:28;;;;;;;10.80;3.10;;;;;;;-145.18;100.00;46642.81;5020290;28;20104;-61
2023/08/13 07:22:54;;;;;;;7.83;2.50;;;;;;;-145.18;100.00;46650.63;5029010;28;20029;-61
2023/08/13 07:25:19;;;;;;;8.03;2.47;;;;;;;-145.18;100.00;46650.63;5023940;28;20033;-61
2023/08/13 07:27:44;;;;;;;8.93;2.53;;;;;;;-145.18;100.00;46646.72;5030401;28;20048;-61
2023/08/13 07:30:11;;;;;;;8.10;2.97;;;;;;;-145.18;100.00;46646.72;5022740;28;20255;-61
2023/08/13 07:32:38;;;;;;;8.67;2.57;;;;;;;-145.18;100.00;46652.59;5027460;28;20036;-61
2023/08/13 07:35:06;;;;;;;13.83;3.13;;;;;;;-145.18;100.00;46648.69;5023482;28;20057;-61
2023/08/13 07:37:32;;;;;;;13.47;3.37;;;;;;;-145.18;100.00;46652.59;5026006;28;20560;-60
2023/08/13 07:39:58;;;;;;;8.07;2.80;;;;;;;-145.18;100.00;46660.41;5030266;28;20389;-61
2023/08/13 07:42:23;;;;;;;12.33;2.80;;;;;;;-145.18;100.00;46652.59;5024664;28;20025;-61
2023/08/13 07:44:49;;;;;;;7.37;3.30;;;;;;;-145.18;100.00;46662.34;5022910;28;20025;-61
2023/08/13 07:47:14;;;;;;;11.57;2.67;;;;;;;-145.18;100.00;46664.31;5026999;28;20029;-61
2023/08/13 07:49:40;;;;;;;9.00;2.90;;;;;;;-145.18;100.00;46660.41;5025790;28;20026;-61
2023/08/13 07:52:05;;;;;;;8.30;2.40;;;;;;;-145.18;100.00;46664.31;5028376;28;20025;-61
2023/08/13 07:54:31;;;;;;;7.90;2.80;;;;;;;-145.18;100.00;46670.16;5028741;28;20425;-61
2023/08/13 07:56:56;;;;;;;7.17;2.10;;;;;;;-145.18;100.00;46662.34;5019700;28;20045;-61
2023/08/13 07:59:22;;;;;;;4.87;2.00;;;;;;;-145.18;100.00;46664.31;5027689;28;20064;-61
2023/08/13 08:01:47;;;;;;;14.00;2.20;;;;;;;-145.18;100.00;46664.31;5022115;28;20508;-61
2023/08/13 08:04:13;;;;;;;8.23;1.97;;;;;;;-145.18;100.00;46668.22;5028511;28;20101;-61
2023/08/13 08:06:39;;;;;;;8.20;2.13;;;;;;;-145.18;100.00;46672.13;5023968;28;20478;-61
2023/08/13 08:09:07;;;;;;;8.83;2.03;;;;;;;-145.18;100.00;46670.16;5027881;28;20033;-61
2023/08/13 08:11:33;;;;;;;10.10;2.40;;;;;;;-145.18;100.00;46666.25;5017956;28;20029;-61
2023/08/13 08:13:58;;;;;;;6.53;2.27;;;;;;;-145.18;100.00;46668.22;5023926;28;20557;-61
2023/08/13 08:16:23;;;;;;;8.63;2.23;;;;;;;-145.18;100.00;46670.16;5019125;28;20033;-61
2023/08/13 08:18:49;;;;;;;13.73;2.63;;;;;;;-145.18;100.00;46674.06;5033948;28;20437;-61
2023/08/13 08:21:14;;;;;;;8.90;2.10;;;;;;;-145.18;100.00;46672.13;5025609;28;20054;-61
2023/08/13 08:23:40;;;;;;;8.60;2.20;;;;;;;-145.18;100.00;46676.03;5033151;28;20121;-61
2023/08/13 08:26:06;;;;;;;8.50;2.47;;;;;;;-145.18;100.00;46677.97;5030777;28;20025;-61
2023/08/13 08:28:31;;;;;;;6.47;2.30;;;;;;;-145.18;100.00;46674.06;5029810;28;20025;-61
2023/08/13 08:30:56;;;;;;;7.60;1.73;;;;;;;-145.18;100.00;46676.03;5033794;28;20527;-61
2023/08/13 08:33:23;;;;;;;6.57;2.17;;;;;;;-145.18;100.00;46676.03;5031553;28;20033;-60
2023/08/13 08:35:49;;;;;;;7.40;1.83;;;;;;;-145.18;100.00;46679.94;5031564;28;20037;-61
2023/08/13 08:38:14;;;;;;;14.03;2.80;;;;;;;-145.18;100.00;46677.97;5039734;28;20049;-61
2023/08/13 08:40:45;;;;;;;8.13;2.17;;;;;;;-145.18;100.00;46681.88;5031708;28;20030;-61
2023/08/13 08:43:11;;;;;;;13.53;2.77;;;;;;;-145.18;100.00;46685.78;5032011;28;20112;-60
2023/08/13 08:45:38;;;;;;;7.03;2.33;;;;;;;-145.18;100.00;46681.88;5008676;28;20030;-61
2023/08/13 08:48:07;;;;;;;16.00;2.87;;;;;;;-145.18;100.00;46681.88;5038751;28;20033;-61
2023/08/13 08:50:36;;;;;;;7.80;2.20;;;;;;;-145.18;100.00;46685.78;5024041;28;20557;-61
2023/08/13 08:53:03;;;;;;;11.43;2.00;;;;;;;-145.18;100.00;46687.75;5037117;28;20037;-61
2023/08/13 08:55:28;;;;;;;7.57;2.03;;;;;;;-145.18;100.00;46683.84;5030697;28;20025;-61
2023/08/13 08:57:54;;;;;;;7.93;2.13;;;;;;;-145.18;100.00;46683.84;5022616;28;20124;-61
2023/08/13 09:00:20;;;;;;;12.20;1.80;;;;;;;-145.18;100.00;46681.88;5030585;28;20041;-61
2023/08/13 09:02:46;;;;;;;10.40;2.37;;;;;;;-145.18;100.00;46685.78;5032489;28;20090;-61
2023/08/13 09:05:11;;;;;;;7.93;1.80;;;;;;;-145.18;100.00;46683.84;5027997;28;20029;-60
2023/08/13 09:07:42;;;;;;;10.10;2.00;;;;;;;-145.18;100.00;46685.78;5032226;28;20371;-61
2023/08/13 09:10:08;;;;;;;6.23;2.27;;;;;;;-145.18;100.00;46685.78;5025492;28;20014;-61
2023/08/13 09:12:37;;;;;;;8.83;2.33;;;;;;;-145.18;100.00;46679.94;5031342;28;20032;-61
2023/08/13 09:15:07;;;;;;;8.97;2.13;;;;;;;-145.18;100.00;46676.03;5019315;28;20018;-61
2023/08/13 09:17:33;;;;;;;10.53;2.43;;;;;;;-145.18;100.00;46670.16;5027688;28;20022;-60
2023/08/13 09:20:00;;;;;;;15.90;2.33;;;;;;;-145.18;100.00;46664.31;5017300;28;20092;-61
2023/08/13 09:22:32;;;;;;;9.87;2.50;;;;;;;-145.18;100.00;46668.22;5017607;28;20040;-61
2023/08/13 09:25:01;;;;;;;12.90;3.40;;;;;;;-145.18;100.00;46664.31;5031622;28;20029;-61
2023/08/13 09:27:26;;;;;;;10.17;2.43;;;;;;;-145.18;100.00;46662.34;5031801;28;20128;-61
2023/08/13 09:29:53;;;;;;;7.33;2.10;;;;;;;-145.18;100.00;46656.50;5032503;28;20034;-60
2023/08/13 09:32:19;;;;;;;10.10;3.03;;;;;;;-145.18;100.00;46658.44;5027805;28;20110;-60
2023/08/13 09:34:44;;;;;;;8.37;1.90;;;;;;;-145.18;100.00;46658.44;5027854;28;20118;-60
2023/08/13 09:37:09;;;;;;;8.60;2.00;;;;;;;-145.18;100.00;46664.31;5020165;28;20037;-61
2023/08/13 09:39:35;;;;;;;6.67;1.80;;;;;;;-145.18;100.00;46679.94;5025913;28;20143;-61
2023/08/13 09:42:05;;;;;;;7.10;1.90;;;;;;;-145.18;100.00;46656.50;5017967;28;20036;-61
2023/08/13 09:44:30;;;;;;;9.77;2.40;;;;;;;-145.18;100.00;46607.66;5026444;28;20037;-61
2023/08/13 09:47:01;;;;;;;12.20;1.90;;;;;;;-145.18;100.00;46590.06;5027560;28;20059;-61
2023/08/13 09:49:32;;;;;;;5.70;1.80;;;;;;;-145.18;100.00;46578.34;5023027;28;20057;-61
2023/08/13 09:52:07;;;;;;;8.90;2.27;;;;;;;-145.18;100.00;46570.53;5028765;28;20025;-61
2023/08/13 09:54:46;;;;;;;9.30;1.73;;;;;;;-145.18;100.00;46558.81;5025252;28;20068;-61
2023/08/13 09:57:14;;;;;;;11.97;2.13;;;;;;;-145.18;100.00;46554.91;5024449;28;20038;-61
2023/08/13 09:59:40;;;;;;;7.93;2.13;;;;;;;-145.18;100.00;46552.97;5025261;28;20029;-61
2023/08/13 10:02:07;;;;;;;7.63;1.80;;;;;;;-145.18;100.00;46558.81;5024525;28;20905;-60
2023/08/13 10:04:34;;;;;;;9.87;2.43;;;;;;;-145.18;100.00;46558.81;5024709;28;20503;-61
2023/08/13 10:07:00;;;;;;;10.23;2.23;;;;;;;-145.18;100.00;46560.78;5026435;28;20394;-61
2023/08/13 10:09:26;;;;;;;6.20;2.00;;;;;;;-145.18;100.00;46549.06;5023543;28;20022;-61
2023/08/13 10:11:52;;;;;;;7.30;1.67;;;;;;;-145.18;100.00;46564.69;5023946;28;20045;-61
2023/08/13 10:14:17;;;;;;;9.83;2.57;;;;;;;-145.18;100.00;46566.63;5022942;28;20037;-61
2023/08/13 10:16:45;;;;;;;7.40;1.97;;;;;;;-145.18;100.00;46556.88;5024534;28;20025;-61
2023/08/13 10:19:11;;;;;;;8.97;2.20;;;;;;;-145.18;100.00;46551.00;5017306;28;20516;-61
2023/08/13 10:21:37;;;;;;;9.37;2.23;;;;;;;-145.18;100.00;46551.00;5022091;28;20060;-61
2023/08/13 10:24:05;;;;;;;8.00;2.17;;;;;;;-145.18;100.00;46562.72;5019977;28;20061;-61
2023/08/13 10:26:31;;;;;;;8.53;1.80;;;;;;;-145.18;100.00;46554.91;5023302;28;20025;-61
2023/08/13 10:28:56;;;;;;;8.67;2.20;;;;;;;-145.18;100.00;46556.88;5018341;28;20034;-61
2023/08/13 10:31:29;;;;;;;9.87;2.10;;;;;;;-145.18;100.00;46558.81;5024297;28;20045;-61
2023/08/13 10:34:07;;;;;;;7.87;1.70;;;;;;;-145.18;100.00;46570.53;5023977;28;20041;-61
2023/08/13 10:36:49;;;;;;;9.63;2.13;;;;;;;-145.18;100.00;46578.34;5026867;28;20033;-61
2023/08/13 10:39:40;;;;;;;12.20;1.90;;;;;;;-145.18;100.00;46578.34;5020687;28;20102;-61
2023/08/13 10:42:45;;;;;;;5.07;1.93;;;;;;;-145.18;100.00;46547.09;5012726;28;20389;-64
2023/08/13 10:45:14;;;;;;;6.40;1.73;;;;;;;-145.18;100.00;46586.16;5014994;28;20075;-65
2023/08/13 10:47:44;;;;;;;10.02;2.00;;;;;;;-145.18;100.00;46627.19;5031670;28;20183;-64
2023/08/13 10:50:38;;;;;;;9.98;1.92;;;;;;;-145.18;100.00;46847.91;5028350;28;20057;-64
2023/08/13 10:53:21;;;;;;;14.83;2.07;;;;;;;-145.18;100.00;46588.13;5012804;28;20049;-64
2023/08/13 10:55:49;;;;;;;7.23;2.13;;;;;;;-145.18;100.00;46578.34;5016821;28;20120;-64
2023/08/13 10:58:26;;;;;;;7.20;2.20;;;;;;;-145.18;100.00;46599.84;5014866;28;20034;-64
2023/08/13 11:00:57;;;;;;;7.77;2.00;;;;;;;-145.18;100.00;46609.59;5030173;28;20042;-64
2023/08/13 11:03:27;;;;;;;6.20;2.00;;;;;;;-145.18;100.00;46613.50;5025693;28;20045;-64
2023/08/13 11:05:54;;;;;;;6.97;1.80;;;;;;;-145.18;100.00;46605.69;5025827;28;20114;-64